createdAt,value
2023-07-05T00:03:27.822Z,18.59
2023-07-05T00:09:28.887Z,18.51
2023-07-05T00:15:39.544Z,18.47
2023-07-05T00:21:40.495Z,18.43
2023-07-05T00:28:01.372Z,18.36
2023-07-05T00:34:22.244Z,18.31
2023-07-05T00:39:43.430Z,18.23
2023-07-05T00:45:19.291Z,18.25
2023-07-05T00:50:25.000Z,18.30
2023-07-05T00:55:27.683Z,18.34
2023-07-05T01:00:30.603Z,18.35
2023-07-05T01:06:31.537Z,18.30
2023-07-05T01:12:58.564Z,18.06
2023-07-05T01:19:31.777Z,17.91
2023-07-05T01:25:51.096Z,17.86
2023-07-05T01:31:54.592Z,17.85
2023-07-05T01:38:17.233Z,17.84
2023-07-05T01:44:38.161Z,17.79
2023-07-05T01:50:34.566Z,17.76
2023-07-05T01:56:05.268Z,17.54
2023-07-05T02:01:09.953Z,17.38
2023-07-05T02:06:14.941Z,17.23
2023-07-05T02:11:16.284Z,17.11
2023-07-05T02:16:19.693Z,17.10
2023-07-05T02:21:21.188Z,17.12
2023-07-05T02:26:22.349Z,17.08
2023-07-05T02:31:23.709Z,17.09
2023-07-05T02:36:27.198Z,17.11
2023-07-05T02:41:28.670Z,17.07
2023-07-05T02:47:30.724Z,17.01
2023-07-05T02:53:51.648Z,16.97
2023-07-05T03:00:12.625Z,16.88
2023-07-05T03:06:35.710Z,16.82
2023-07-05T03:12:56.704Z,16.83
2023-07-05T03:19:17.742Z,16.78
2023-07-05T03:25:38.735Z,16.74
2023-07-05T03:31:59.828Z,16.80
2023-07-05T03:38:20.817Z,16.84
2023-07-05T03:43:43.106Z,16.84
2023-07-05T03:49:44.059Z,16.93
2023-07-05T03:55:45.102Z,17.08
2023-07-05T04:01:49.027Z,17.19
2023-07-05T04:08:09.961Z,17.29
2023-07-05T04:14:30.887Z,17.38
2023-07-05T04:20:52.264Z,17.50
2023-07-05T04:27:13.496Z,17.69
2023-07-05T04:33:34.434Z,17.96
2023-07-05T04:38:56.713Z,18.22
2023-07-05T04:43:58.035Z,18.40
2023-07-05T04:48:59.354Z,18.64
2023-07-05T04:54:01.198Z,18.90
2023-07-05T04:59:02.376Z,19.16
2023-07-05T05:04:06.089Z,19.44
2023-07-05T05:09:07.326Z,19.65
2023-07-05T05:14:08.644Z,19.93
2023-07-05T05:19:09.940Z,20.21
2023-07-05T05:24:11.472Z,20.45
2023-07-05T05:30:12.616Z,20.54
2023-07-05T05:36:33.505Z,20.67
2023-07-05T05:41:54.527Z,20.80
2023-07-05T05:47:55.531Z,20.93
2023-07-05T05:54:11.347Z,21.36
2023-07-05T05:59:12.693Z,21.96
2023-07-05T06:04:14.116Z,22.52
2023-07-05T06:09:15.629Z,23.03
2023-07-05T06:15:16.746Z,23.42
2023-07-05T06:21:37.634Z,24.02
2023-07-05T06:27:58.802Z,24.62
2023-07-05T06:34:19.708Z,25.28
2023-07-05T06:40:40.600Z,25.80
2023-07-05T06:47:01.558Z,26.42
2023-07-05T06:52:22.644Z,27.03
2023-07-05T06:58:23.652Z,27.19
2023-07-05T07:03:48.668Z,27.98
2023-07-05T07:08:49.932Z,28.56
2023-07-05T07:13:51.338Z,29.04
2023-07-05T07:18:53.012Z,29.32
2023-07-05T07:23:54.390Z,29.57
2023-07-05T07:28:56.915Z,29.87
2023-07-05T07:34:18.141Z,29.95
2023-07-05T07:39:19.541Z,30.54
2023-07-05T07:44:20.888Z,31.02
2023-07-05T07:49:22.356Z,30.98
2023-07-05T07:55:23.315Z,31.09
2023-07-05T08:01:50.047Z,31.22
2023-07-05T08:08:10.959Z,31.51
2023-07-05T08:14:31.865Z,31.63
2023-07-05T08:20:52.996Z,31.73
2023-07-05T08:27:14.234Z,31.81
2023-07-05T08:33:35.821Z,31.55
2023-07-05T08:38:57.230Z,31.69
2023-07-05T08:44:24.539Z,31.60
2023-07-05T08:55:30.201Z,30.87
2023-07-05T09:00:36.805Z,30.80
2023-07-05T09:05:43.179Z,30.88
2023-07-05T09:11:39.251Z,30.92
2023-07-05T09:17:40.277Z,30.97
2023-07-05T09:23:05.451Z,31.30
2023-07-05T09:28:56.354Z,31.31
2023-07-05T09:35:29.621Z,31.42
2023-07-05T09:42:08.605Z,31.19
2023-07-05T09:48:09.941Z,30.72
2023-07-05T09:53:53.360Z,30.91
2023-07-05T10:00:14.274Z,30.92
2023-07-05T10:06:35.448Z,31.55
2023-07-05T10:12:56.344Z,32.39
2023-07-05T10:19:23.315Z,32.82
2023-07-05T10:25:44.360Z,33.73
2023-07-05T10:32:05.409Z,35.19
2023-07-05T10:38:29.807Z,35.14
2023-07-05T10:44:53.815Z,33.64
2023-07-05T10:51:14.747Z,32.14
2023-07-05T10:57:45.653Z,31.07
2023-07-05T11:04:01.524Z,30.80
2023-07-05T11:10:22.453Z,30.74
2023-07-05T11:16:38.781Z,30.49
2023-07-05T11:22:01.503Z,29.84
2023-07-05T11:27:43.907Z,29.27
2023-07-05T11:33:25.011Z,28.85
2023-07-05T11:39:06.607Z,28.54
2023-07-05T11:45:29.029Z,28.52
2023-07-05T11:51:49.954Z,28.83
2023-07-05T11:58:13.427Z,29.00
2023-07-05T12:04:37.026Z,29.24
2023-07-05T12:09:58.821Z,29.96
2023-07-05T12:15:59.808Z,31.63
2023-07-05T12:22:20.731Z,33.28
2023-07-05T12:28:41.617Z,34.29
2023-07-05T12:35:02.486Z,35.21
2023-07-05T12:41:29.764Z,35.51
2023-07-05T12:47:50.824Z,35.25
2023-07-05T12:54:11.759Z,35.28
2023-07-05T13:00:38.966Z,35.68
2023-07-05T13:06:01.251Z,33.83
2023-07-05T13:12:02.335Z,33.06
2023-07-05T13:18:23.236Z,33.68
2023-07-05T13:24:44.140Z,33.90
2023-07-05T13:31:08.298Z,33.66
2023-07-05T13:37:29.233Z,32.30
2023-07-05T13:43:50.391Z,31.01
2023-07-05T13:50:11.277Z,28.64
2023-07-05T13:55:35.288Z,25.34
2023-07-05T14:00:38.053Z,23.43
2023-07-05T14:06:39.053Z,22.35
2023-07-05T14:13:00.002Z,21.68
2023-07-05T14:19:20.953Z,21.18
2023-07-05T14:25:41.823Z,20.96
2023-07-05T14:31:12.464Z,20.77
2023-07-05T14:37:13.492Z,20.42
2023-07-05T14:43:34.534Z,19.88
2023-07-05T14:49:55.544Z,19.69
2023-07-05T14:56:16.417Z,20.19
2023-07-05T15:02:37.576Z,21.98
2023-07-05T15:09:08.482Z,23.79
2023-07-05T15:15:29.395Z,24.70
2023-07-05T15:20:50.686Z,24.86
2023-07-05T15:25:56.372Z,24.65
2023-07-05T15:30:58.710Z,24.58
2023-07-05T15:36:00.249Z,24.56
2023-07-05T15:41:03.796Z,24.40
2023-07-05T15:46:10.943Z,24.23
2023-07-05T15:51:13.415Z,24.20
2023-07-05T15:56:14.867Z,24.26
2023-07-05T16:01:21.733Z,24.31
2023-07-05T16:06:22.920Z,24.29
2023-07-05T16:12:33.848Z,24.09
2023-07-05T16:18:54.741Z,23.84
2023-07-05T16:25:15.665Z,23.63
2023-07-05T16:31:36.566Z,23.44
2023-07-05T16:37:57.414Z,23.14
2023-07-05T16:44:18.315Z,22.67
2023-07-05T16:50:39.270Z,22.36
2023-07-05T16:57:00.526Z,22.21
2023-07-05T17:03:21.552Z,21.95
2023-07-05T17:09:42.831Z,21.75
2023-07-05T17:16:03.885Z,21.51
2023-07-05T17:22:24.818Z,21.33
2023-07-05T17:28:45.785Z,21.05
2023-07-05T17:35:06.898Z,20.57
2023-07-05T17:41:27.813Z,20.25
2023-07-05T17:47:48.717Z,19.98
2023-07-05T17:54:09.636Z,19.62
2023-07-05T17:59:31.312Z,19.25
2023-07-05T18:05:32.481Z,19.07
2023-07-05T18:11:57.857Z,18.85
2023-07-05T18:18:20.767Z,18.66
2023-07-05T18:24:41.729Z,18.56
2023-07-05T18:31:03.754Z,18.51
2023-07-05T18:38:19.832Z,18.43
2023-07-05T18:45:00.087Z,18.36
2023-07-05T18:51:28.799Z,18.28
2023-07-05T18:57:55.615Z,18.17
2023-07-05T19:04:20.092Z,18.15
2023-07-05T19:10:53.871Z,18.10
2023-07-05T19:17:56.789Z,18.09
2023-07-05T19:32:11.980Z,18.04
2023-07-05T19:38:36.923Z,17.93
2023-07-05T19:45:42.335Z,17.88
2023-07-05T19:52:45.072Z,17.86
2023-07-05T19:58:55.321Z,17.84
2023-07-05T20:05:58.900Z,17.85
2023-07-05T20:12:21.861Z,17.86
2023-07-05T20:18:56.685Z,17.84
2023-07-05T20:25:33.504Z,17.84
2023-07-05T20:32:02.854Z,17.80
2023-07-05T20:38:17.792Z,17.75
2023-07-05T20:44:47.543Z,17.70
2023-07-05T20:51:15.465Z,17.72
2023-07-05T20:56:46.729Z,17.71
2023-07-05T21:02:53.161Z,17.75
2023-07-05T21:09:40.440Z,17.70
2023-07-05T21:16:12.583Z,17.69
2023-07-05T21:22:55.752Z,17.66
2023-07-05T21:29:57.660Z,17.58
2023-07-05T21:36:39.091Z,17.54
2023-07-05T21:44:02.185Z,17.49
2023-07-05T21:50:37.077Z,17.48
2023-07-05T21:57:39.808Z,17.49
2023-07-05T22:04:44.250Z,17.50
2023-07-05T22:11:22.203Z,17.47
2023-07-05T22:18:19.695Z,17.56
2023-07-05T22:24:48.288Z,17.55
2023-07-05T22:31:56.939Z,17.46
2023-07-05T22:38:46.488Z,17.38
2023-07-05T22:45:50.940Z,17.34
2023-07-05T22:52:22.521Z,17.31
2023-07-05T22:59:22.302Z,17.26
2023-07-05T23:06:25.215Z,17.26
2023-07-05T23:13:48.257Z,17.29
2023-07-05T23:20:52.668Z,17.28
2023-07-05T23:27:56.709Z,17.29
2023-07-05T23:34:59.735Z,17.23
2023-07-05T23:42:05.526Z,17.17
2023-07-05T23:49:16.940Z,17.10
2023-07-05T23:56:15.512Z,17.06
